sensor_id;sensor_type;location;lat;lon;timestamp;P1;durP1;ratioP1;P2;durP2;ratioP2
29662;SDS011;16578;53.266;7.920;2023-02-28T00:00:12;6.53;;;3.55;;
29662;SDS011;16578;53.266;7.920;2023-02-28T00:02:42;5.25;;;3.47;;
29662;SDS011;16578;53.266;7.920;2023-02-28T00:05:09;7.15;;;3.47;;
29662;SDS011;16578;53.266;7.920;2023-02-28T00:07:36;5.80;;;3.83;;
29662;SDS011;16578;53.266;7.920;2023-02-28T00:10:03;5.95;;;3.60;;
29662;SDS011;16578;53.266;7.920;2023-02-28T00:12:32;6.45;;;3.90;;
29662;SDS011;16578;53.266;7.920;2023-02-28T00:14:59;3.67;;;3.10;;
29662;SDS011;16578;53.266;7.920;2023-02-28T00:17:25;6.28;;;3.17;;
29662;SDS011;16578;53.266;7.920;2023-02-28T00:19:51;6.35;;;3.00;;
29662;SDS011;16578;53.266;7.920;2023-02-28T00:22:17;4.25;;;3.00;;
29662;SDS011;16578;53.266;7.920;2023-02-28T00:24:44;4.45;;;2.65;;
29662;SDS011;16578;53.266;7.920;2023-02-28T00:27:10;5.43;;;3.00;;
29662;SDS011;16578;53.266;7.920;2023-02-28T00:29:36;5.82;;;3.05;;
29662;SDS011;16578;53.266;7.920;2023-02-28T00:32:02;4.78;;;3.08;;
29662;SDS011;16578;53.266;7.920;2023-02-28T00:34:28;5.10;;;3.05;;
29662;SDS011;16578;53.266;7.920;2023-02-28T00:36:54;6.72;;;3.47;;
29662;SDS011;16578;53.266;7.920;2023-02-28T00:39:20;5.57;;;3.08;;
29662;SDS011;16578;53.266;7.920;2023-02-28T00:41:46;7.25;;;3.17;;
29662;SDS011;16578;53.266;7.920;2023-02-28T00:44:12;4.75;;;2.53;;
29662;SDS011;16578;53.266;7.920;2023-02-28T00:46:37;3.53;;;2.58;;
29662;SDS011;16578;53.266;7.920;2023-02-28T00:49:03;4.55;;;3.00;;
29662;SDS011;16578;53.266;7.920;2023-02-28T00:51:28;4.60;;;2.65;;
29662;SDS011;16578;53.266;7.920;2023-02-28T00:53:54;3.70;;;2.70;;
29662;SDS011;16578;53.266;7.920;2023-02-28T00:56:20;5.88;;;3.60;;
29662;SDS011;16578;53.266;7.920;2023-02-28T00:58:45;3.78;;;2.40;;
29662;SDS011;16578;53.266;7.920;2023-02-28T01:01:11;5.45;;;2.60;;
29662;SDS011;16578;53.266;7.920;2023-02-28T01:03:36;6.03;;;3.10;;
29662;SDS011;16578;53.266;7.920;2023-02-28T01:06:03;4.88;;;2.80;;
29662;SDS011;16578;53.266;7.920;2023-02-28T01:08:29;4.15;;;3.10;;
29662;SDS011;16578;53.266;7.920;2023-02-28T01:10:54;6.28;;;3.08;;
29662;SDS011;16578;53.266;7.920;2023-02-28T01:13:20;4.97;;;3.08;;
29662;SDS011;16578;53.266;7.920;2023-02-28T01:15:48;4.28;;;2.83;;
29662;SDS011;16578;53.266;7.920;2023-02-28T01:18:16;3.42;;;2.83;;
29662;SDS011;16578;53.266;7.920;2023-02-28T01:20:42;6.10;;;3.03;;
29662;SDS011;16578;53.266;7.920;2023-02-28T01:23:08;6.53;;;3.17;;
29662;SDS011;16578;53.266;7.920;2023-02-28T01:25:34;4.40;;;3.03;;
29662;SDS011;16578;53.266;7.920;2023-02-28T01:28:01;5.97;;;3.15;;
29662;SDS011;16578;53.266;7.920;2023-02-28T01:30:26;5.70;;;3.17;;
29662;SDS011;16578;53.266;7.920;2023-02-28T01:32:52;4.43;;;2.90;;
29662;SDS011;16578;53.266;7.920;2023-02-28T01:35:18;4.05;;;3.03;;
29662;SDS011;16578;53.266;7.920;2023-02-28T01:37:44;6.35;;;2.97;;
29662;SDS011;16578;53.266;7.920;2023-02-28T01:40:10;3.60;;;2.60;;
29662;SDS011;16578;53.266;7.920;2023-02-28T01:42:36;3.80;;;2.47;;
29662;SDS011;16578;53.266;7.920;2023-02-28T01:47:44;5.57;;;3.38;;
29662;SDS011;16578;53.266;7.920;2023-02-28T01:50:15;4.88;;;2.88;;
29662;SDS011;16578;53.266;7.920;2023-02-28T01:52:44;5.00;;;3.30;;
29662;SDS011;16578;53.266;7.920;2023-02-28T01:55:11;6.40;;;2.88;;
29662;SDS011;16578;53.266;7.920;2023-02-28T01:57:45;5.53;;;3.55;;
29662;SDS011;16578;53.266;7.920;2023-02-28T02:00:14;3.70;;;2.92;;
29662;SDS011;16578;53.266;7.920;2023-02-28T02:02:42;3.72;;;2.92;;
29662;SDS011;16578;53.266;7.920;2023-02-28T02:05:23;3.25;;;2.67;;
29662;SDS011;16578;53.266;7.920;2023-02-28T02:07:54;4.00;;;2.95;;
29662;SDS011;16578;53.266;7.920;2023-02-28T02:10:25;4.93;;;3.30;;
29662;SDS011;16578;53.266;7.920;2023-02-28T02:13:10;4.70;;;3.30;;
29662;SDS011;16578;53.266;7.920;2023-02-28T02:24:24;4.80;;;2.97;;
29662;SDS011;16578;53.266;7.920;2023-02-28T02:29:41;4.93;;;3.13;;
29662;SDS011;16578;53.266;7.920;2023-02-28T02:32:18;4.35;;;3.38;;
29662;SDS011;16578;53.266;7.920;2023-02-28T02:34:52;7.57;;;3.85;;
29662;SDS011;16578;53.266;7.920;2023-02-28T02:37:39;5.03;;;3.90;;
29662;SDS011;16578;53.266;7.920;2023-02-28T02:40:20;6.60;;;4.25;;
29662;SDS011;16578;53.266;7.920;2023-02-28T02:43:01;6.63;;;4.20;;
29662;SDS011;16578;53.266;7.920;2023-02-28T02:45:58;8.93;;;4.65;;
29662;SDS011;16578;53.266;7.920;2023-02-28T02:48:29;5.65;;;4.15;;
29662;SDS011;16578;53.266;7.920;2023-02-28T02:50:58;5.38;;;3.45;;
29662;SDS011;16578;53.266;7.920;2023-02-28T02:53:33;6.18;;;4.15;;
29662;SDS011;16578;53.266;7.920;2023-02-28T02:56:02;6.90;;;4.28;;
29662;SDS011;16578;53.266;7.920;2023-02-28T02:58:31;5.83;;;2.73;;
29662;SDS011;16578;53.266;7.920;2023-02-28T03:01:00;6.63;;;4.18;;
29662;SDS011;16578;53.266;7.920;2023-02-28T03:03:28;5.47;;;3.80;;
29662;SDS011;16578;53.266;7.920;2023-02-28T03:05:59;4.60;;;3.60;;
29662;SDS011;16578;53.266;7.920;2023-02-28T03:08:26;5.93;;;3.60;;
29662;SDS011;16578;53.266;7.920;2023-02-28T03:10:56;4.45;;;3.30;;
29662;SDS011;16578;53.266;7.920;2023-02-28T03:21:56;5.45;;;3.30;;
29662;SDS011;16578;53.266;7.920;2023-02-28T03:24:35;6.28;;;3.67;;
29662;SDS011;16578;53.266;7.920;2023-02-28T03:27:09;4.63;;;3.60;;
29662;SDS011;16578;53.266;7.920;2023-02-28T03:29:43;5.57;;;3.92;;
29662;SDS011;16578;53.266;7.920;2023-02-28T03:32:14;4.20;;;3.20;;
29662;SDS011;16578;53.266;7.920;2023-02-28T03:35:00;5.53;;;4.00;;
29662;SDS011;16578;53.266;7.920;2023-02-28T03:37:38;4.22;;;3.22;;
29662;SDS011;16578;53.266;7.920;2023-02-28T03:40:14;4.78;;;3.78;;
29662;SDS011;16578;53.266;7.920;2023-02-28T03:42:45;5.95;;;3.63;;
29662;SDS011;16578;53.266;7.920;2023-02-28T03:45:17;4.97;;;3.35;;
29662;SDS011;16578;53.266;7.920;2023-02-28T03:47:57;6.20;;;3.97;;
29662;SDS011;16578;53.266;7.920;2023-02-28T03:50:29;6.63;;;3.97;;
29662;SDS011;16578;53.266;7.920;2023-02-28T03:53:09;4.72;;;3.13;;
29662;SDS011;16578;53.266;7.920;2023-02-28T03:56:14;6.38;;;3.70;;
29662;SDS011;16578;53.266;7.920;2023-02-28T03:58:46;4.63;;;3.47;;
29662;SDS011;16578;53.266;7.920;2023-02-28T04:03:50;6.25;;;3.50;;
29662;SDS011;16578;53.266;7.920;2023-02-28T04:06:18;5.40;;;3.83;;
29662;SDS011;16578;53.266;7.920;2023-02-28T04:08:45;6.25;;;4.13;;
29662;SDS011;16578;53.266;7.920;2023-02-28T04:11:18;9.02;;;4.15;;
29662;SDS011;16578;53.266;7.920;2023-02-28T04:13:52;4.95;;;3.97;;
29662;SDS011;16578;53.266;7.920;2023-02-28T04:16:18;5.35;;;3.78;;
29662;SDS011;16578;53.266;7.920;2023-02-28T04:18:44;6.97;;;4.88;;
29662;SDS011;16578;53.266;7.920;2023-02-28T04:21:09;6.75;;;4.57;;
29662;SDS011;16578;53.266;7.920;2023-02-28T04:23:36;5.82;;;4.20;;
29662;SDS011;16578;53.266;7.920;2023-02-28T04:26:01;5.57;;;4.60;;
29662;SDS011;16578;53.266;7.920;2023-02-28T04:28:28;10.32;;;6.40;;
29662;SDS011;16578;53.266;7.920;2023-02-28T04:30:57;6.93;;;4.95;;
29662;SDS011;16578;53.266;7.920;2023-02-28T04:33:28;5.60;;;4.25;;
29662;SDS011;16578;53.266;7.920;2023-02-28T04:35:58;6.93;;;4.10;;
29662;SDS011;16578;53.266;7.920;2023-02-28T04:38:25;4.00;;;3.47;;
29662;SDS011;16578;53.266;7.920;2023-02-28T04:40:50;4.65;;;3.85;;
29662;SDS011;16578;53.266;7.920;2023-02-28T04:43:16;4.72;;;3.72;;
29662;SDS011;16578;53.266;7.920;2023-02-28T04:45:41;8.88;;;3.90;;
29662;SDS011;16578;53.266;7.920;2023-02-28T04:48:07;6.88;;;4.20;;
29662;SDS011;16578;53.266;7.920;2023-02-28T04:50:32;8.38;;;4.32;;
29662;SDS011;16578;53.266;7.920;2023-02-28T04:52:58;4.28;;;3.83;;
29662;SDS011;16578;53.266;7.920;2023-02-28T04:55:23;5.22;;;3.85;;
29662;SDS011;16578;53.266;7.920;2023-02-28T04:57:49;6.95;;;4.28;;
29662;SDS011;16578;53.266;7.920;2023-02-28T05:00:14;5.68;;;4.10;;
29662;SDS011;16578;53.266;7.920;2023-02-28T05:02:41;7.28;;;4.97;;
29662;SDS011;16578;53.266;7.920;2023-02-28T05:05:07;6.32;;;4.15;;
29662;SDS011;16578;53.266;7.920;2023-02-28T05:07:33;7.32;;;4.07;;
29662;SDS011;16578;53.266;7.920;2023-02-28T05:09:58;5.53;;;4.20;;
29662;SDS011;16578;53.266;7.920;2023-02-28T05:12:24;7.47;;;5.55;;
29662;SDS011;16578;53.266;7.920;2023-02-28T05:14:49;7.40;;;5.75;;
29662;SDS011;16578;53.266;7.920;2023-02-28T05:17:15;6.70;;;5.35;;
29662;SDS011;16578;53.266;7.920;2023-02-28T05:19:41;8.32;;;6.30;;
29662;SDS011;16578;53.266;7.920;2023-02-28T05:22:11;8.23;;;6.90;;
29662;SDS011;16578;53.266;7.920;2023-02-28T05:24:39;6.70;;;5.30;;
29662;SDS011;16578;53.266;7.920;2023-02-28T05:27:04;9.55;;;4.82;;
29662;SDS011;16578;53.266;7.920;2023-02-28T05:29:30;5.40;;;4.28;;
29662;SDS011;16578;53.266;7.920;2023-02-28T05:31:55;7.50;;;4.40;;
29662;SDS011;16578;53.266;7.920;2023-02-28T05:34:21;6.40;;;4.05;;
29662;SDS011;16578;53.266;7.920;2023-02-28T05:36:46;8.48;;;5.82;;
29662;SDS011;16578;53.266;7.920;2023-02-28T05:39:12;7.30;;;4.80;;
29662;SDS011;16578;53.266;7.920;2023-02-28T05:41:41;7.95;;;6.03;;
29662;SDS011;16578;53.266;7.920;2023-02-28T05:44:07;10.05;;;7.65;;
29662;SDS011;16578;53.266;7.920;2023-02-28T05:46:33;10.45;;;8.40;;
29662;SDS011;16578;53.266;7.920;2023-02-28T05:48:59;10.15;;;8.55;;
29662;SDS011;16578;53.266;7.920;2023-02-28T05:51:25;5.75;;;5.03;;
29662;SDS011;16578;53.266;7.920;2023-02-28T05:53:51;5.57;;;4.47;;
29662;SDS011;16578;53.266;7.920;2023-02-28T05:56:17;8.60;;;4.65;;
29662;SDS011;16578;53.266;7.920;2023-02-28T05:58:42;6.88;;;4.95;;
29662;SDS011;16578;53.266;7.920;2023-02-28T06:01:21;5.05;;;4.30;;
29662;SDS011;16578;53.266;7.920;2023-02-28T06:04:02;7.22;;;4.80;;
29662;SDS011;16578;53.266;7.920;2023-02-28T06:06:29;5.80;;;4.37;;
29662;SDS011;16578;53.266;7.920;2023-02-28T06:08:55;7.38;;;4.13;;
29662;SDS011;16578;53.266;7.920;2023-02-28T06:11:21;5.63;;;4.38;;
29662;SDS011;16578;53.266;7.920;2023-02-28T06:13:47;8.23;;;5.00;;
29662;SDS011;16578;53.266;7.920;2023-02-28T06:16:12;6.57;;;4.50;;
29662;SDS011;16578;53.266;7.920;2023-02-28T06:18:38;7.47;;;4.80;;
29662;SDS011;16578;53.266;7.920;2023-02-28T06:21:04;6.78;;;5.05;;
29662;SDS011;16578;53.266;7.920;2023-02-28T06:23:30;7.22;;;5.68;;
29662;SDS011;16578;53.266;7.920;2023-02-28T06:25:55;6.43;;;4.93;;
29662;SDS011;16578;53.266;7.920;2023-02-28T06:28:23;6.38;;;4.78;;
29662;SDS011;16578;53.266;7.920;2023-02-28T06:30:50;7.20;;;4.82;;
29662;SDS011;16578;53.266;7.920;2023-02-28T06:33:15;7.07;;;5.28;;
29662;SDS011;16578;53.266;7.920;2023-02-28T06:35:43;6.60;;;5.13;;
29662;SDS011;16578;53.266;7.920;2023-02-28T06:38:09;9.20;;;5.60;;
29662;SDS011;16578;53.266;7.920;2023-02-28T06:40:35;7.57;;;4.78;;
29662;SDS011;16578;53.266;7.920;2023-02-28T06:43:01;7.15;;;5.18;;
29662;SDS011;16578;53.266;7.920;2023-02-28T06:45:27;8.98;;;5.45;;
29662;SDS011;16578;53.266;7.920;2023-02-28T06:47:53;9.15;;;6.13;;
29662;SDS011;16578;53.266;7.920;2023-02-28T06:50:19;6.22;;;5.18;;
29662;SDS011;16578;53.266;7.920;2023-02-28T06:52:45;8.95;;;5.65;;
29662;SDS011;16578;53.266;7.920;2023-02-28T06:55:11;9.80;;;5.50;;
29662;SDS011;16578;53.266;7.920;2023-02-28T06:57:37;10.10;;;5.50;;
29662;SDS011;16578;53.266;7.920;2023-02-28T07:00:07;7.57;;;5.43;;
29662;SDS011;16578;53.266;7.920;2023-02-28T07:02:35;7.75;;;5.82;;
29662;SDS011;16578;53.266;7.920;2023-02-28T07:05:02;6.78;;;5.78;;
29662;SDS011;16578;53.266;7.920;2023-02-28T07:07:28;7.07;;;5.15;;
29662;SDS011;16578;53.266;7.920;2023-02-28T07:09:54;7.22;;;5.75;;
29662;SDS011;16578;53.266;7.920;2023-02-28T07:12:19;6.35;;;4.93;;
29662;SDS011;16578;53.266;7.920;2023-02-28T07:14:45;8.45;;;4.90;;
29662;SDS011;16578;53.266;7.920;2023-02-28T07:17:11;9.32;;;5.60;;
29662;SDS011;16578;53.266;7.920;2023-02-28T07:19:37;6.25;;;4.80;;
29662;SDS011;16578;53.266;7.920;2023-02-28T07:22:03;8.02;;;5.57;;
29662;SDS011;16578;53.266;7.920;2023-02-28T07:24:29;8.60;;;5.60;;
29662;SDS011;16578;53.266;7.920;2023-02-28T07:26:55;7.25;;;5.63;;
29662;SDS011;16578;53.266;7.920;2023-02-28T07:29:21;7.88;;;5.47;;
29662;SDS011;16578;53.266;7.920;2023-02-28T07:31:46;7.35;;;5.72;;
29662;SDS011;16578;53.266;7.920;2023-02-28T07:34:12;8.35;;;5.50;;
29662;SDS011;16578;53.266;7.920;2023-02-28T07:36:38;9.95;;;5.90;;
29662;SDS011;16578;53.266;7.920;2023-02-28T07:39:04;9.07;;;6.70;;
29662;SDS011;16578;53.266;7.920;2023-02-28T07:41:29;9.52;;;6.82;;
29662;SDS011;16578;53.266;7.920;2023-02-28T07:46:24;14.48;;;6.95;;
29662;SDS011;16578;53.266;7.920;2023-02-28T07:48:51;11.02;;;7.80;;
29662;SDS011;16578;53.266;7.920;2023-02-28T07:51:17;12.20;;;7.30;;
29662;SDS011;16578;53.266;7.920;2023-02-28T07:53:43;11.02;;;8.40;;
29662;SDS011;16578;53.266;7.920;2023-02-28T07:56:09;12.88;;;8.88;;
29662;SDS011;16578;53.266;7.920;2023-02-28T07:58:36;13.25;;;8.85;;
29662;SDS011;16578;53.266;7.920;2023-02-28T08:01:05;11.48;;;8.73;;
29662;SDS011;16578;53.266;7.920;2023-02-28T08:03:32;13.35;;;9.93;;
29662;SDS011;16578;53.266;7.920;2023-02-28T08:05:58;12.38;;;9.75;;
29662;SDS011;16578;53.266;7.920;2023-02-28T08:08:23;12.18;;;8.75;;
29662;SDS011;16578;53.266;7.920;2023-02-28T08:10:53;11.65;;;8.82;;
29662;SDS011;16578;53.266;7.920;2023-02-28T08:13:18;12.85;;;8.75;;
29662;SDS011;16578;53.266;7.920;2023-02-28T08:15:44;12.95;;;8.48;;
29662;SDS011;16578;53.266;7.920;2023-02-28T08:18:10;10.27;;;7.28;;
29662;SDS011;16578;53.266;7.920;2023-02-28T08:20:36;13.07;;;8.00;;
29662;SDS011;16578;53.266;7.920;2023-02-28T08:23:01;10.18;;;7.70;;
29662;SDS011;16578;53.266;7.920;2023-02-28T08:25:27;16.15;;;8.68;;
29662;SDS011;16578;53.266;7.920;2023-02-28T08:27:52;9.00;;;7.72;;
29662;SDS011;16578;53.266;7.920;2023-02-28T08:30:18;11.45;;;8.63;;
29662;SDS011;16578;53.266;7.920;2023-02-28T08:32:44;10.43;;;8.20;;
29662;SDS011;16578;53.266;7.920;2023-02-28T08:35:09;12.70;;;8.48;;
29662;SDS011;16578;53.266;7.920;2023-02-28T08:37:35;13.23;;;9.25;;
29662;SDS011;16578;53.266;7.920;2023-02-28T08:40:01;10.90;;;8.85;;
29662;SDS011;16578;53.266;7.920;2023-02-28T08:42:26;12.30;;;8.82;;
29662;SDS011;16578;53.266;7.920;2023-02-28T08:44:52;11.05;;;9.27;;
29662;SDS011;16578;53.266;7.920;2023-02-28T08:47:18;12.45;;;8.50;;
29662;SDS011;16578;53.266;7.920;2023-02-28T08:49:43;10.20;;;8.43;;
29662;SDS011;16578;53.266;7.920;2023-02-28T08:52:09;13.32;;;8.38;;
29662;SDS011;16578;53.266;7.920;2023-02-28T08:54:34;10.07;;;8.05;;
29662;SDS011;16578;53.266;7.920;2023-02-28T08:57:00;12.02;;;8.35;;
29662;SDS011;16578;53.266;7.920;2023-02-28T08:59:27;10.20;;;8.30;;
29662;SDS011;16578;53.266;7.920;2023-02-28T09:01:52;10.75;;;8.55;;
29662;SDS011;16578;53.266;7.920;2023-02-28T09:04:18;12.65;;;9.90;;
29662;SDS011;16578;53.266;7.920;2023-02-28T09:06:43;12.43;;;9.07;;
29662;SDS011;16578;53.266;7.920;2023-02-28T09:09:09;11.57;;;9.43;;
29662;SDS011;16578;53.266;7.920;2023-02-28T09:11:35;13.60;;;8.98;;
29662;SDS011;16578;53.266;7.920;2023-02-28T09:14:01;12.13;;;8.95;;
29662;SDS011;16578;53.266;7.920;2023-02-28T09:16:28;13.10;;;8.88;;
29662;SDS011;16578;53.266;7.920;2023-02-28T09:18:55;12.65;;;8.15;;
29662;SDS011;16578;53.266;7.920;2023-02-28T09:21:21;11.52;;;9.02;;
29662;SDS011;16578;53.266;7.920;2023-02-28T09:23:47;12.43;;;9.02;;
29662;SDS011;16578;53.266;7.920;2023-02-28T09:26:21;10.38;;;8.55;;
29662;SDS011;16578;53.266;7.920;2023-02-28T09:28:49;12.98;;;9.18;;
29662;SDS011;16578;53.266;7.920;2023-02-28T09:31:16;11.35;;;8.70;;
29662;SDS011;16578;53.266;7.920;2023-02-28T09:33:48;11.40;;;7.75;;
29662;SDS011;16578;53.266;7.920;2023-02-28T09:36:14;10.17;;;6.97;;
29662;SDS011;16578;53.266;7.920;2023-02-28T09:38:40;9.20;;;6.93;;
29662;SDS011;16578;53.266;7.920;2023-02-28T09:41:24;8.32;;;6.25;;
29662;SDS011;16578;53.266;7.920;2023-02-28T09:43:54;7.15;;;5.95;;
29662;SDS011;16578;53.266;7.920;2023-02-28T09:48:52;4.88;;;3.92;;
29662;SDS011;16578;53.266;7.920;2023-02-28T09:53:59;5.40;;;4.25;;
29662;SDS011;16578;53.266;7.920;2023-02-28T09:56:36;6.32;;;4.05;;
29662;SDS011;16578;53.266;7.920;2023-02-28T10:02:13;7.57;;;4.97;;
29662;SDS011;16578;53.266;7.920;2023-02-28T10:05:03;4.95;;;3.78;;
29662;SDS011;16578;53.266;7.920;2023-02-28T10:13:06;4.65;;;3.88;;
29662;SDS011;16578;53.266;7.920;2023-02-28T10:15:58;6.28;;;4.10;;
29662;SDS011;16578;53.266;7.920;2023-02-28T10:18:39;7.25;;;4.47;;
29662;SDS011;16578;53.266;7.920;2023-02-28T10:21:17;6.85;;;4.03;;
29662;SDS011;16578;53.266;7.920;2023-02-28T10:23:49;6.00;;;3.60;;
29662;SDS011;16578;53.266;7.920;2023-02-28T10:26:20;3.95;;;2.88;;
29662;SDS011;16578;53.266;7.920;2023-02-28T10:28:50;3.15;;;2.10;;
29662;SDS011;16578;53.266;7.920;2023-02-28T10:31:19;3.58;;;1.88;;
29662;SDS011;16578;53.266;7.920;2023-02-28T10:33:45;2.55;;;1.67;;
29662;SDS011;16578;53.266;7.920;2023-02-28T10:36:15;3.60;;;2.00;;
29662;SDS011;16578;53.266;7.920;2023-02-28T10:38:43;3.80;;;2.40;;
29662;SDS011;16578;53.266;7.920;2023-02-28T10:41:11;4.38;;;2.45;;
29662;SDS011;16578;53.266;7.920;2023-02-28T10:43:57;5.28;;;2.53;;
29662;SDS011;16578;53.266;7.920;2023-02-28T10:46:39;3.55;;;2.50;;
29662;SDS011;16578;53.266;7.920;2023-02-28T10:49:07;3.10;;;2.47;;
29662;SDS011;16578;53.266;7.920;2023-02-28T10:51:40;4.43;;;2.58;;
29662;SDS011;16578;53.266;7.920;2023-02-28T10:54:14;2.40;;;2.20;;
29662;SDS011;16578;53.266;7.920;2023-02-28T10:57:15;2.30;;;2.00;;
29662;SDS011;16578;53.266;7.920;2023-02-28T10:59:45;4.38;;;2.70;;
29662;SDS011;16578;53.266;7.920;2023-02-28T11:02:28;5.07;;;2.47;;
29662;SDS011;16578;53.266;7.920;2023-02-28T11:05:15;4.25;;;2.53;;
29662;SDS011;16578;53.266;7.920;2023-02-28T11:07:52;3.30;;;2.55;;
29662;SDS011;16578;53.266;7.920;2023-02-28T11:10:21;4.82;;;2.50;;
29662;SDS011;16578;53.266;7.920;2023-02-28T11:12:50;3.47;;;2.50;;
29662;SDS011;16578;53.266;7.920;2023-02-28T11:17:53;4.32;;;2.40;;
29662;SDS011;16578;53.266;7.920;2023-02-28T11:20:25;3.72;;;2.40;;
29662;SDS011;16578;53.266;7.920;2023-02-28T11:22:53;3.88;;;2.45;;
29662;SDS011;16578;53.266;7.920;2023-02-28T11:25:25;2.95;;;2.50;;
29662;SDS011;16578;53.266;7.920;2023-02-28T11:27:58;3.38;;;2.60;;
29662;SDS011;16578;53.266;7.920;2023-02-28T11:30:40;5.97;;;2.60;;
29662;SDS011;16578;53.266;7.920;2023-02-28T11:33:23;5.82;;;2.85;;
29662;SDS011;16578;53.266;7.920;2023-02-28T11:35:51;4.40;;;2.72;;
29662;SDS011;16578;53.266;7.920;2023-02-28T11:38:20;4.15;;;2.70;;
29662;SDS011;16578;53.266;7.920;2023-02-28T11:43:24;4.07;;;2.20;;
29662;SDS011;16578;53.266;7.920;2023-02-28T11:46:05;3.78;;;2.55;;
29662;SDS011;16578;53.266;7.920;2023-02-28T11:51:21;3.45;;;2.38;;
29662;SDS011;16578;53.266;7.920;2023-02-28T11:53:55;2.42;;;1.70;;
29662;SDS011;16578;53.266;7.920;2023-02-28T11:59:14;2.35;;;2.15;;
29662;SDS011;16578;53.266;7.920;2023-02-28T12:02:05;3.13;;;2.03;;
29662;SDS011;16578;53.266;7.920;2023-02-28T12:07:47;1.95;;;1.83;;
29662;SDS011;16578;53.266;7.920;2023-02-28T12:12:58;3.38;;;2.35;;
29662;SDS011;16578;53.266;7.920;2023-02-28T12:15:58;2.97;;;2.33;;
29662;SDS011;16578;53.266;7.920;2023-02-28T12:27:05;5.03;;;2.20;;
29662;SDS011;16578;53.266;7.920;2023-02-28T12:29:42;5.22;;;2.60;;
29662;SDS011;16578;53.266;7.920;2023-02-28T12:32:32;2.67;;;2.15;;
29662;SDS011;16578;53.266;7.920;2023-02-28T12:35:14;4.15;;;2.80;;
29662;SDS011;16578;53.266;7.920;2023-02-28T12:37:52;4.28;;;2.90;;
29662;SDS011;16578;53.266;7.920;2023-02-28T12:40:31;3.88;;;2.20;;
29662;SDS011;16578;53.266;7.920;2023-02-28T12:43:19;2.90;;;2.25;;
29662;SDS011;16578;53.266;7.920;2023-02-28T12:45:55;3.38;;;2.03;;
29662;SDS011;16578;53.266;7.920;2023-02-28T12:48:25;2.38;;;1.92;;
29662;SDS011;16578;53.266;7.920;2023-02-28T12:50:56;5.03;;;2.53;;
29662;SDS011;16578;53.266;7.920;2023-02-28T12:53:47;2.75;;;1.75;;
29662;SDS011;16578;53.266;7.920;2023-02-28T12:56:23;2.75;;;2.22;;
29662;SDS011;16578;53.266;7.920;2023-02-28T12:59:18;5.85;;;2.25;;
29662;SDS011;16578;53.266;7.920;2023-02-28T13:10:40;3.38;;;2.28;;
29662;SDS011;16578;53.266;7.920;2023-02-28T13:13:13;4.35;;;2.08;;
29662;SDS011;16578;53.266;7.920;2023-02-28T13:15:41;4.22;;;2.35;;
29662;SDS011;16578;53.266;7.920;2023-02-28T13:18:58;2.42;;;2.03;;
29662;SDS011;16578;53.266;7.920;2023-02-28T13:21:28;2.90;;;2.28;;
29662;SDS011;16578;53.266;7.920;2023-02-28T13:32:18;2.83;;;2.15;;
29662;SDS011;16578;53.266;7.920;2023-02-28T13:34:33;2.47;;;2.20;;
29662;SDS011;16578;53.266;7.920;2023-02-28T13:39:51;2.67;;;2.20;;
29662;SDS011;16578;53.266;7.920;2023-02-28T13:45:20;3.83;;;2.30;;
29662;SDS011;16578;53.266;7.920;2023-02-28T13:47:45;2.40;;;1.80;;
29662;SDS011;16578;53.266;7.920;2023-02-28T13:50:29;3.47;;;1.80;;
29662;SDS011;16578;53.266;7.920;2023-02-28T13:55:43;3.53;;;2.22;;
29662;SDS011;16578;53.266;7.920;2023-02-28T14:01:06;3.08;;;1.92;;
29662;SDS011;16578;53.266;7.920;2023-02-28T14:03:58;3.50;;;2.20;;
29662;SDS011;16578;53.266;7.920;2023-02-28T14:06:55;3.75;;;2.13;;
29662;SDS011;16578;53.266;7.920;2023-02-28T14:09:32;2.88;;;1.77;;
29662;SDS011;16578;53.266;7.920;2023-02-28T14:18:21;3.30;;;1.58;;
29662;SDS011;16578;53.266;7.920;2023-02-28T14:20:52;2.75;;;1.50;;
29662;SDS011;16578;53.266;7.920;2023-02-28T14:31:47;2.05;;;1.52;;
29662;SDS011;16578;53.266;7.920;2023-02-28T14:37:20;1.63;;;1.38;;
29662;SDS011;16578;53.266;7.920;2023-02-28T14:39:54;2.17;;;1.70;;
29662;SDS011;16578;53.266;7.920;2023-02-28T14:47:30;3.63;;;1.63;;
29662;SDS011;16578;53.266;7.920;2023-02-28T14:49:58;3.38;;;1.90;;
29662;SDS011;16578;53.266;7.920;2023-02-28T14:52:29;2.35;;;1.65;;
29662;SDS011;16578;53.266;7.920;2023-02-28T14:54:58;2.55;;;2.15;;
29662;SDS011;16578;53.266;7.920;2023-02-28T14:57:29;2.10;;;1.90;;
29662;SDS011;16578;53.266;7.920;2023-02-28T15:00:14;1.83;;;1.60;;
29662;SDS011;16578;53.266;7.920;2023-02-28T15:02:42;2.38;;;1.60;;
29662;SDS011;16578;53.266;7.920;2023-02-28T15:07:46;2.55;;;1.85;;
29662;SDS011;16578;53.266;7.920;2023-02-28T15:10:17;2.08;;;1.60;;
29662;SDS011;16578;53.266;7.920;2023-02-28T15:12:52;2.35;;;2.10;;
29662;SDS011;16578;53.266;7.920;2023-02-28T15:18:22;3.08;;;1.77;;
29662;SDS011;16578;53.266;7.920;2023-02-28T15:20:52;2.90;;;1.80;;
29662;SDS011;16578;53.266;7.920;2023-02-28T15:23:20;2.50;;;1.63;;
29662;SDS011;16578;53.266;7.920;2023-02-28T15:25:47;1.92;;;1.65;;
29662;SDS011;16578;53.266;7.920;2023-02-28T15:28:15;2.20;;;1.73;;
29662;SDS011;16578;53.266;7.920;2023-02-28T15:30:51;3.38;;;1.80;;
29662;SDS011;16578;53.266;7.920;2023-02-28T15:33:23;2.40;;;1.90;;
29662;SDS011;16578;53.266;7.920;2023-02-28T15:36:03;4.15;;;1.90;;
29662;SDS011;16578;53.266;7.920;2023-02-28T15:38:35;1.70;;;1.60;;
29662;SDS011;16578;53.266;7.920;2023-02-28T15:41:01;2.97;;;2.10;;
29662;SDS011;16578;53.266;7.920;2023-02-28T15:43:28;4.43;;;2.10;;
29662;SDS011;16578;53.266;7.920;2023-02-28T15:46:01;3.08;;;2.10;;
29662;SDS011;16578;53.266;7.920;2023-02-28T15:48:32;3.55;;;2.20;;
29662;SDS011;16578;53.266;7.920;2023-02-28T15:56:26;3.85;;;2.28;;
29662;SDS011;16578;53.266;7.920;2023-02-28T15:58:56;5.30;;;2.10;;
29662;SDS011;16578;53.266;7.920;2023-02-28T16:01:25;2.97;;;2.05;;
29662;SDS011;16578;53.266;7.920;2023-02-28T16:03:55;4.07;;;1.95;;
29662;SDS011;16578;53.266;7.920;2023-02-28T16:09:10;4.30;;;2.30;;
29662;SDS011;16578;53.266;7.920;2023-02-28T16:11:41;2.47;;;2.05;;
29662;SDS011;16578;53.266;7.920;2023-02-28T16:14:15;2.70;;;2.47;;
29662;SDS011;16578;53.266;7.920;2023-02-28T16:16:44;2.80;;;2.28;;
29662;SDS011;16578;53.266;7.920;2023-02-28T16:19:11;9.88;;;2.78;;
29662;SDS011;16578;53.266;7.920;2023-02-28T16:21:37;4.00;;;2.00;;
29662;SDS011;16578;53.266;7.920;2023-02-28T16:24:02;4.30;;;2.10;;
29662;SDS011;16578;53.266;7.920;2023-02-28T16:26:28;3.15;;;2.00;;
29662;SDS011;16578;53.266;7.920;2023-02-28T16:28:54;3.10;;;2.25;;
29662;SDS011;16578;53.266;7.920;2023-02-28T16:31:20;2.78;;;2.28;;
29662;SDS011;16578;53.266;7.920;2023-02-28T16:33:45;2.47;;;2.00;;
29662;SDS011;16578;53.266;7.920;2023-02-28T16:36:19;3.47;;;2.20;;
29662;SDS011;16578;53.266;7.920;2023-02-28T16:38:47;4.60;;;2.20;;
29662;SDS011;16578;53.266;7.920;2023-02-28T16:41:14;2.58;;;2.05;;
29662;SDS011;16578;53.266;7.920;2023-02-28T16:43:45;4.70;;;2.95;;
29662;SDS011;16578;53.266;7.920;2023-02-28T16:48:38;7.40;;;3.80;;
29662;SDS011;16578;53.266;7.920;2023-02-28T16:51:05;6.43;;;3.20;;
29662;SDS011;16578;53.266;7.920;2023-02-28T16:53:35;3.08;;;2.20;;
29662;SDS011;16578;53.266;7.920;2023-02-28T16:56:01;3.58;;;2.47;;
29662;SDS011;16578;53.266;7.920;2023-02-28T16:58:27;3.70;;;2.45;;
29662;SDS011;16578;53.266;7.920;2023-02-28T17:00:52;2.60;;;2.03;;
29662;SDS011;16578;53.266;7.920;2023-02-28T17:03:25;2.88;;;2.33;;
29662;SDS011;16578;53.266;7.920;2023-02-28T17:05:52;3.13;;;2.20;;
29662;SDS011;16578;53.266;7.920;2023-02-28T17:08:18;3.10;;;1.90;;
29662;SDS011;16578;53.266;7.920;2023-02-28T17:10:44;4.72;;;2.20;;
29662;SDS011;16578;53.266;7.920;2023-02-28T17:13:09;3.65;;;2.30;;
29662;SDS011;16578;53.266;7.920;2023-02-28T17:15:35;5.55;;;3.05;;